createdAt,value
2023-04-22T00:01:06.805Z,11.18
2023-04-22T00:03:34.216Z,11.17
2023-04-22T00:06:01.594Z,11.13
2023-04-22T00:08:28.621Z,11.11
2023-04-22T00:10:56.611Z,11.16
2023-04-22T00:13:23.526Z,11.14
2023-04-22T00:15:51.226Z,11.13
2023-04-22T00:18:18.303Z,11.11
2023-04-22T00:20:45.709Z,11.09
2023-04-22T00:23:13.501Z,11.03
2023-04-22T00:25:40.904Z,10.97
2023-04-22T00:28:07.938Z,10.80
2023-04-22T00:30:36.127Z,10.62
2023-04-22T00:33:03.090Z,10.46
2023-04-22T00:35:30.141Z,10.35
2023-04-22T00:37:57.048Z,10.32
2023-04-22T00:40:23.999Z,10.33
2023-04-22T00:42:51.331Z,10.32
2023-04-22T00:45:19.962Z,10.42
2023-04-22T00:47:48.435Z,10.45
2023-04-22T00:50:16.222Z,10.46
2023-04-22T00:52:43.171Z,10.49
2023-04-22T00:55:11.287Z,10.49
2023-04-22T00:57:39.478Z,10.54
2023-04-22T01:00:09.815Z,10.45
2023-04-22T01:02:38.795Z,10.51
2023-04-22T01:05:08.486Z,10.51
2023-04-22T01:07:36.492Z,10.51
2023-04-22T01:10:04.832Z,10.49
2023-04-22T01:12:31.767Z,10.48
2023-04-22T01:14:58.691Z,10.47
2023-04-22T01:17:25.813Z,10.46
2023-04-22T01:19:53.347Z,10.46
2023-04-22T01:22:21.426Z,10.43
2023-04-22T01:24:49.170Z,10.39
2023-04-22T01:27:16.188Z,10.36
2023-04-22T01:29:43.529Z,10.33
2023-04-22T01:32:11.017Z,10.29
2023-04-22T01:34:38.099Z,10.25
2023-04-22T01:37:06.559Z,10.22
2023-04-22T01:39:33.713Z,10.20
2023-04-22T01:42:02.111Z,10.17
2023-04-22T01:44:29.165Z,10.15
2023-04-22T01:46:56.310Z,10.14
2023-04-22T01:49:23.216Z,10.10
2023-04-22T01:51:51.054Z,10.09
2023-04-22T01:54:19.238Z,10.07
2023-04-22T01:56:54.604Z,10.02
2023-04-22T01:59:22.180Z,9.94
2023-04-22T02:01:50.432Z,9.92
2023-04-22T02:04:18.421Z,9.90
2023-04-22T02:06:45.469Z,9.90
2023-04-22T02:09:12.403Z,9.89
2023-04-22T02:11:39.275Z,9.88
2023-04-22T02:14:06.667Z,9.87
2023-04-22T02:16:33.697Z,9.88
2023-04-22T02:19:00.691Z,9.87
2023-04-22T02:21:32.579Z,9.84
2023-04-22T02:23:59.502Z,9.85
2023-04-22T02:26:28.728Z,9.79
2023-04-22T02:28:55.635Z,9.79
2023-04-22T02:31:22.572Z,9.78
2023-04-22T02:33:49.740Z,9.78
2023-04-22T02:36:17.085Z,9.77
2023-04-22T02:38:44.015Z,9.76
2023-04-22T02:41:11.348Z,9.75
2023-04-22T02:43:38.273Z,9.74
2023-04-22T02:46:05.244Z,9.72
2023-04-22T02:48:32.210Z,9.70
2023-04-22T02:50:59.097Z,9.69
2023-04-22T02:53:26.024Z,9.67
2023-04-22T02:55:55.616Z,9.66
2023-04-22T02:58:22.576Z,9.62
2023-04-22T03:00:49.546Z,9.60
2023-04-22T03:03:16.700Z,9.58
2023-04-22T03:05:43.745Z,9.53
2023-04-22T03:08:10.960Z,9.55
2023-04-22T03:10:37.880Z,9.52
2023-04-22T03:13:04.818Z,9.50
2023-04-22T03:15:31.898Z,9.50
2023-04-22T03:17:58.814Z,9.46
2023-04-22T03:20:26.146Z,9.44
2023-04-22T03:22:54.079Z,9.35
2023-04-22T03:25:21.750Z,9.39
2023-04-22T03:27:54.890Z,9.36
2023-04-22T03:30:21.918Z,9.36
2023-04-22T03:32:49.037Z,9.34
2023-04-22T03:35:22.144Z,9.32
2023-04-22T03:37:51.178Z,9.27
2023-04-22T03:40:23.490Z,9.29
2023-04-22T03:42:50.450Z,9.29
2023-04-22T03:45:19.843Z,9.27
2023-04-22T03:47:53.809Z,9.24
2023-04-22T03:50:26.527Z,9.22
2023-04-22T03:52:54.523Z,9.21
2023-04-22T03:55:21.740Z,9.18
2023-04-22T03:57:51.773Z,9.19
2023-04-22T04:00:19.483Z,9.18
2023-04-22T04:02:52.664Z,9.15
2023-04-22T04:05:24.597Z,9.20
2023-04-22T04:07:51.593Z,9.19
2023-04-22T04:10:18.515Z,9.25
2023-04-22T04:12:45.975Z,9.28
2023-04-22T04:15:12.989Z,9.33
2023-04-22T04:17:40.622Z,9.36
2023-04-22T04:20:08.818Z,9.44
2023-04-22T04:22:36.588Z,9.50
2023-04-22T04:25:07.049Z,9.61
2023-04-22T04:27:41.527Z,9.71
2023-04-22T04:30:11.300Z,9.83
2023-04-22T04:32:43.033Z,9.96
2023-04-22T04:35:15.278Z,10.10
2023-04-22T04:37:47.304Z,10.23
2023-04-22T04:40:15.134Z,10.23
2023-04-22T04:42:55.697Z,10.45
2023-04-22T04:45:26.539Z,10.50
2023-04-22T04:47:54.907Z,10.65
2023-04-22T04:50:30.358Z,10.74
2023-04-22T04:53:01.521Z,10.84
2023-04-22T04:55:34.860Z,10.94
2023-04-22T04:58:06.754Z,11.02
2023-04-22T05:00:33.662Z,11.09
2023-04-22T05:03:01.172Z,11.15
2023-04-22T05:05:29.686Z,11.14
2023-04-22T05:07:57.417Z,11.08
2023-04-22T05:10:27.187Z,11.09
2023-04-22T05:12:54.567Z,11.09
2023-04-22T05:15:24.280Z,11.12
2023-04-22T05:17:51.691Z,11.15
2023-04-22T05:20:18.678Z,11.16
2023-04-22T05:22:45.958Z,11.18
2023-04-22T05:25:14.058Z,11.22
2023-04-22T05:27:49.019Z,11.28
2023-04-22T05:30:18.467Z,11.32
2023-04-22T05:32:45.571Z,11.38
2023-04-22T05:35:12.605Z,11.43
2023-04-22T05:37:41.101Z,11.47
2023-04-22T05:40:08.793Z,11.52
2023-04-22T05:42:35.846Z,11.59
2023-04-22T05:45:03.045Z,11.66
2023-04-22T05:47:30.730Z,11.74
2023-04-22T05:49:58.138Z,11.83
2023-04-22T05:52:34.239Z,11.94
2023-04-22T05:55:09.540Z,12.03
2023-04-22T05:57:36.477Z,12.10
2023-04-22T06:00:09.718Z,12.22
2023-04-22T06:02:49.683Z,12.41
2023-04-22T06:05:17.954Z,12.53
2023-04-22T06:07:44.944Z,12.66
2023-04-22T06:10:11.931Z,12.78
2023-04-22T06:12:38.867Z,12.90
2023-04-22T06:15:06.622Z,13.04
2023-04-22T06:17:33.628Z,13.16
2023-04-22T06:20:00.799Z,13.28
2023-04-22T06:22:27.818Z,13.39
2023-04-22T06:24:54.742Z,13.54
2023-04-22T06:27:21.680Z,13.69
2023-04-22T06:29:48.600Z,13.83
2023-04-22T06:32:15.947Z,13.95
2023-04-22T06:34:42.905Z,14.06
2023-04-22T06:37:09.884Z,14.25
2023-04-22T06:39:36.920Z,14.39
2023-04-22T06:42:22.262Z,14.54
2023-04-22T06:45:12.623Z,14.66
2023-04-22T06:47:48.424Z,14.84
2023-04-22T06:50:20.141Z,14.98
2023-04-22T06:53:06.825Z,15.15
2023-04-22T06:55:35.716Z,15.29
2023-04-22T06:58:02.751Z,15.44
2023-04-22T07:00:29.727Z,15.58
2023-04-22T07:02:58.634Z,15.73
2023-04-22T07:05:25.689Z,15.87
2023-04-22T07:07:52.924Z,16.01
2023-04-22T07:10:22.642Z,16.16
2023-04-22T07:13:18.287Z,16.29
2023-04-22T07:15:46.330Z,16.42
2023-04-22T07:18:13.242Z,16.57
2023-04-22T07:20:40.268Z,16.71
2023-04-22T07:23:07.143Z,16.83
2023-04-22T07:25:34.130Z,16.95
2023-04-22T07:28:01.038Z,17.08
2023-04-22T07:30:28.066Z,17.22
2023-04-22T07:32:55.462Z,17.34
2023-04-22T07:35:22.390Z,17.45
2023-04-22T07:37:49.264Z,17.56
2023-04-22T07:40:16.382Z,17.66
2023-04-22T07:42:43.271Z,17.76
2023-04-22T07:45:10.365Z,17.84
2023-04-22T07:47:37.278Z,17.96
2023-04-22T07:50:04.806Z,18.04
2023-04-22T07:52:31.802Z,18.15
2023-04-22T07:54:58.711Z,18.31
2023-04-22T07:57:25.874Z,18.40
2023-04-22T07:59:53.119Z,18.50
2023-04-22T08:02:20.176Z,18.62
2023-04-22T08:04:47.194Z,18.71
2023-04-22T08:07:30.947Z,18.83
2023-04-22T08:10:00.274Z,18.95
2023-04-22T08:12:27.213Z,19.05
2023-04-22T08:14:54.339Z,19.16
2023-04-22T08:17:22.252Z,19.26
2023-04-22T08:19:49.947Z,19.36
2023-04-22T08:22:18.531Z,19.37
2023-04-22T08:24:45.422Z,19.54
2023-04-22T08:27:12.351Z,19.64
2023-04-22T08:29:39.524Z,19.74
2023-04-22T08:32:06.661Z,19.79
2023-04-22T08:34:33.699Z,19.89
2023-04-22T08:37:00.574Z,19.97
2023-04-22T08:39:27.487Z,20.09
2023-04-22T08:41:56.237Z,20.20
2023-04-22T08:44:23.457Z,20.29
2023-04-22T08:46:51.614Z,20.39
2023-04-22T08:49:19.346Z,20.48
2023-04-22T08:51:46.406Z,20.59
2023-04-22T08:54:13.333Z,20.69
2023-04-22T08:56:44.274Z,20.76
2023-04-22T08:59:12.679Z,20.85
2023-04-22T09:01:41.506Z,20.92
2023-04-22T09:04:11.450Z,20.98
2023-04-22T09:06:39.349Z,21.06
2023-04-22T09:09:08.751Z,21.22
2023-04-22T09:11:36.331Z,21.29
2023-04-22T09:14:06.749Z,21.35
2023-04-22T09:16:34.511Z,21.44
2023-04-22T09:19:01.625Z,21.53
2023-04-22T09:21:29.052Z,21.60
2023-04-22T09:23:56.891Z,21.65
2023-04-22T09:26:26.288Z,21.75
2023-04-22T09:28:58.844Z,21.82
2023-04-22T09:31:28.364Z,21.89
2023-04-22T09:33:59.427Z,21.95
2023-04-22T09:36:30.599Z,21.95
2023-04-22T09:38:59.495Z,22.09
2023-04-22T09:41:38.745Z,22.13
2023-04-22T09:44:11.500Z,22.24
2023-04-22T09:46:38.382Z,22.30
2023-04-22T09:49:05.715Z,22.32
2023-04-22T09:51:32.591Z,22.41
2023-04-22T09:54:06.427Z,22.47
2023-04-22T09:56:52.675Z,22.49
2023-04-22T09:59:28.684Z,22.61
2023-04-22T10:02:00.284Z,22.68
2023-04-22T10:04:28.283Z,22.74
2023-04-22T10:06:55.598Z,22.77
2023-04-22T10:09:25.389Z,22.84
2023-04-22T10:11:55.145Z,22.85
2023-04-22T10:14:23.179Z,22.94
2023-04-22T10:16:54.500Z,22.95
2023-04-22T10:19:23.900Z,23.03
2023-04-22T10:22:00.720Z,23.12
2023-04-22T10:24:28.998Z,23.18
2023-04-22T10:27:06.402Z,23.23
2023-04-22T10:29:39.509Z,23.25
2023-04-22T10:32:25.947Z,23.28
2023-04-22T10:35:10.362Z,23.32
2023-04-22T10:37:39.943Z,23.39
2023-04-22T10:40:17.647Z,23.42
2023-04-22T10:42:52.276Z,23.47
2023-04-22T10:45:20.109Z,23.53
2023-04-22T10:47:47.075Z,23.57
2023-04-22T10:50:20.638Z,23.60
2023-04-22T10:52:57.291Z,23.66
2023-04-22T10:55:26.037Z,23.69
2023-04-22T10:57:54.108Z,23.74
2023-04-22T11:00:52.412Z,23.76
2023-04-22T11:03:28.596Z,23.82
2023-04-22T11:06:22.501Z,23.86
2023-04-22T11:08:51.147Z,23.88
2023-04-22T11:11:19.033Z,23.96
2023-04-22T11:13:50.510Z,24.03
2023-04-22T11:16:18.799Z,24.07
2023-04-22T11:18:47.886Z,24.12
2023-04-22T11:21:15.022Z,24.19
2023-04-22T11:23:53.349Z,24.21
2023-04-22T11:26:35.080Z,24.24
2023-04-22T11:29:01.968Z,24.32
2023-04-22T11:31:28.914Z,24.39
2023-04-22T11:34:00.286Z,24.44
2023-04-22T11:36:27.701Z,24.48
2023-04-22T11:38:56.319Z,24.54
2023-04-22T11:41:23.741Z,24.57
2023-04-22T11:43:50.610Z,24.67
2023-04-22T11:46:28.088Z,24.70
2023-04-22T11:48:55.002Z,24.69
2023-04-22T11:51:21.906Z,24.72
2023-04-22T11:53:51.926Z,24.76
2023-04-22T11:56:18.810Z,24.80
2023-04-22T11:58:45.699Z,24.83
2023-04-22T12:01:13.982Z,24.86
2023-04-22T12:03:40.948Z,24.90
2023-04-22T12:06:08.037Z,24.94
2023-04-22T12:08:40.203Z,24.97
2023-04-22T12:11:10.489Z,24.99
2023-04-22T12:13:37.220Z,25.02
2023-04-22T12:16:06.618Z,25.05
2023-04-22T12:18:39.783Z,25.05
2023-04-22T12:21:15.013Z,25.13
2023-04-22T12:23:54.624Z,25.16
2023-04-22T12:26:26.892Z,25.20
2023-04-22T12:28:55.901Z,25.24
2023-04-22T12:31:22.994Z,25.31
2023-04-22T12:33:50.328Z,25.34
2023-04-22T12:36:20.824Z,25.40
2023-04-22T12:38:48.077Z,25.43
2023-04-22T12:41:16.077Z,25.45
2023-04-22T12:43:43.003Z,25.45
2023-04-22T12:46:10.430Z,25.38
2023-04-22T12:48:37.765Z,25.49
2023-04-22T12:51:06.572Z,25.50
2023-04-22T12:53:33.561Z,25.55
2023-04-22T12:56:00.528Z,25.59
2023-04-22T12:58:27.447Z,25.61
2023-04-22T13:00:54.369Z,25.67
2023-04-22T13:03:21.344Z,25.72
2023-04-22T13:05:48.469Z,25.75
2023-04-22T13:08:15.374Z,25.81
2023-04-22T13:10:42.336Z,25.85
2023-04-22T13:13:18.494Z,25.86
2023-04-22T13:15:53.800Z,25.88
2023-04-22T13:18:22.809Z,25.91
2023-04-22T13:20:49.739Z,25.94
2023-04-22T13:23:17.174Z,25.97
2023-04-22T13:25:44.325Z,26.00
2023-04-22T13:28:11.768Z,25.99
2023-04-22T13:30:39.481Z,26.04
2023-04-22T13:33:06.417Z,26.07
2023-04-22T13:35:33.397Z,26.07
2023-04-22T13:38:01.345Z,26.07
2023-04-22T13:40:28.576Z,26.08
2023-04-22T13:42:55.881Z,26.16
2023-04-22T13:45:22.832Z,26.19
2023-04-22T13:47:49.774Z,26.21
2023-04-22T13:50:16.762Z,26.18
2023-04-22T13:52:43.956Z,26.20
2023-04-22T13:55:11.027Z,26.22
2023-04-22T13:57:37.974Z,26.24
2023-04-22T14:00:05.542Z,26.25
2023-04-22T14:02:38.701Z,26.28
2023-04-22T14:05:06.264Z,26.25
2023-04-22T14:07:33.207Z,26.28
2023-04-22T14:10:00.138Z,26.28
2023-04-22T14:12:27.177Z,26.25
2023-04-22T14:14:54.070Z,26.24
2023-04-22T14:17:22.538Z,26.23
2023-04-22T14:19:49.495Z,26.22
2023-04-22T14:22:16.377Z,26.21
2023-04-22T14:24:43.276Z,26.21
2023-04-22T14:27:11.892Z,26.20
2023-04-22T14:29:39.632Z,26.23
2023-04-22T14:32:06.818Z,26.22
2023-04-22T14:34:33.765Z,26.21
2023-04-22T14:37:00.677Z,26.21
2023-04-22T14:39:27.573Z,26.22
2023-04-22T14:41:54.472Z,26.25
2023-04-22T14:44:21.593Z,26.26
2023-04-22T14:46:48.469Z,26.26
2023-04-22T14:49:15.561Z,26.28
2023-04-22T14:51:42.446Z,26.30
2023-04-22T14:54:09.331Z,26.28
2023-04-22T14:56:36.487Z,26.31
2023-04-22T14:59:03.371Z,26.32
2023-04-22T15:01:31.393Z,26.34
2023-04-22T15:03:58.729Z,26.35
2023-04-22T15:06:26.912Z,26.37
2023-04-22T15:08:54.014Z,26.42
2023-04-22T15:11:20.921Z,26.44
2023-04-22T15:13:47.818Z,26.49
2023-04-22T15:16:14.851Z,26.56
2023-04-22T15:18:41.879Z,26.57
2023-04-22T15:21:10.513Z,26.59
2023-04-22T15:23:37.452Z,26.59
2023-04-22T15:26:04.391Z,26.60
2023-04-22T15:28:31.352Z,26.64
2023-04-22T15:30:58.251Z,26.65
2023-04-22T15:33:25.181Z,26.68
2023-04-22T15:35:52.073Z,26.70
2023-04-22T15:38:19.257Z,26.70
2023-04-22T15:40:46.168Z,26.72
2023-04-22T15:43:13.082Z,26.74
2023-04-22T15:45:40.016Z,26.74
2023-04-22T15:48:07.035Z,26.77
2023-04-22T15:50:34.075Z,26.77
2023-04-22T15:53:00.960Z,26.79
2023-04-22T15:55:27.859Z,26.80
2023-04-22T15:57:54.758Z,26.80
2023-04-22T16:00:21.725Z,26.78
2023-04-22T16:02:55.309Z,26.75
2023-04-22T16:05:24.688Z,26.67
2023-04-22T16:07:53.073Z,26.60
2023-04-22T16:10:20.822Z,26.54
2023-04-22T16:12:47.918Z,26.47
2023-04-22T16:15:14.856Z,26.44
2023-04-22T16:17:43.651Z,26.40
2023-04-22T16:20:10.958Z,26.37
2023-04-22T16:22:37.847Z,26.32
2023-04-22T16:25:05.704Z,26.30
2023-04-22T16:27:32.629Z,26.24
2023-04-22T16:29:59.717Z,26.23
2023-04-22T16:32:26.766Z,26.13
2023-04-22T16:34:53.697Z,26.15
2023-04-22T16:37:20.580Z,26.12
2023-04-22T16:39:47.499Z,26.09
2023-04-22T16:42:14.439Z,26.10
2023-04-22T16:44:41.350Z,26.14
2023-04-22T16:47:08.310Z,26.16
2023-04-22T16:49:35.588Z,26.17
2023-04-22T16:52:02.535Z,26.18
2023-04-22T16:54:29.582Z,26.21
2023-04-22T16:56:57.498Z,26.24
2023-04-22T16:59:24.476Z,26.25
2023-04-22T17:01:51.811Z,26.29
2023-04-22T17:04:18.965Z,26.33
2023-04-22T17:06:46.101Z,26.32
2023-04-22T17:09:12.991Z,26.31
2023-04-22T17:11:39.886Z,26.24
2023-04-22T17:14:06.777Z,26.23
2023-04-22T17:16:33.735Z,26.15
2023-04-22T17:19:00.869Z,26.10
2023-04-22T17:21:28.746Z,25.99
2023-04-22T17:23:55.875Z,25.86
2023-04-22T17:26:22.756Z,25.82
2023-04-22T17:28:49.646Z,25.71
2023-04-22T17:31:16.534Z,25.59
2023-04-22T17:33:43.705Z,25.49
2023-04-22T17:36:10.620Z,25.38
2023-04-22T17:38:37.528Z,25.26
2023-04-22T17:41:04.676Z,25.16
2023-04-22T17:43:31.554Z,25.07
2023-04-22T17:45:58.492Z,24.92
2023-04-22T17:48:25.532Z,24.86
2023-04-22T17:50:52.670Z,24.76
2023-04-22T17:53:19.568Z,24.67
2023-04-22T17:55:46.461Z,24.56
2023-04-22T17:58:13.335Z,24.48
2023-04-22T18:00:40.541Z,24.40
2023-04-22T18:03:07.634Z,24.31
2023-04-22T18:05:34.708Z,24.22
2023-04-22T18:08:02.824Z,24.13
2023-04-22T18:10:30.634Z,24.04
2023-04-22T18:12:57.593Z,23.96
2023-04-22T18:15:24.533Z,23.87
2023-04-22T18:17:51.682Z,23.81
2023-04-22T18:20:19.747Z,23.74
2023-04-22T18:22:49.267Z,23.66
2023-04-22T18:25:16.336Z,23.58
2023-04-22T18:27:43.616Z,23.48
2023-04-22T18:30:10.968Z,23.43
2023-04-22T18:32:38.059Z,23.32
2023-04-22T18:35:05.703Z,23.34
2023-04-22T18:37:34.562Z,23.26
2023-04-22T18:40:02.258Z,23.19
2023-04-22T18:42:29.218Z,23.08
2023-04-22T18:44:56.093Z,23.04
2023-04-22T18:47:23.086Z,22.93
2023-04-22T18:49:50.062Z,22.91
2023-04-22T18:52:17.263Z,22.85
2023-04-22T18:54:44.389Z,22.78
2023-04-22T18:57:11.264Z,22.72
2023-04-22T18:59:38.305Z,22.66
2023-04-22T19:02:06.331Z,22.60
2023-04-22T19:04:33.383Z,22.54
2023-04-22T19:07:00.889Z,22.50
2023-04-22T19:09:27.848Z,22.44
2023-04-22T19:11:55.319Z,22.35
2023-04-22T19:14:22.274Z,22.31
2023-04-22T19:16:49.146Z,22.27
2023-04-22T19:19:16.171Z,22.20
2023-04-22T19:21:43.198Z,22.17
2023-04-22T19:24:10.215Z,22.07
2023-04-22T19:26:37.132Z,22.05
2023-04-22T19:29:04.221Z,22.00
2023-04-22T19:31:31.465Z,21.91
2023-04-22T19:33:59.243Z,21.91
2023-04-22T19:36:26.920Z,21.86
2023-04-22T19:38:53.828Z,21.82
2023-04-22T19:41:20.713Z,21.74
2023-04-22T19:43:47.597Z,21.71
2023-04-22T19:46:14.468Z,21.66
2023-04-22T19:48:41.579Z,21.60
2023-04-22T19:51:10.032Z,21.55
2023-04-22T19:53:39.046Z,21.48
2023-04-22T19:56:06.209Z,21.42
2023-04-22T19:58:33.279Z,21.31
2023-04-22T20:01:00.362Z,21.31
2023-04-22T20:03:27.858Z,21.27
2023-04-22T20:05:55.137Z,21.22
2023-04-22T20:08:27.477Z,21.16
2023-04-22T20:10:55.249Z,21.11
2023-04-22T20:13:22.805Z,21.07
2023-04-22T20:15:50.185Z,21.04
2023-04-22T20:18:17.676Z,21.00
2023-04-22T20:20:47.924Z,20.95
2023-04-22T20:23:16.794Z,20.89
2023-04-22T20:25:44.720Z,20.88
2023-04-22T20:28:11.942Z,20.86
2023-04-22T20:30:39.284Z,20.82
2023-04-22T20:33:06.389Z,20.80
2023-04-22T20:35:35.801Z,20.75
2023-04-22T20:38:03.709Z,20.73
2023-04-22T20:40:31.029Z,20.68
2023-04-22T20:42:58.862Z,20.65
2023-04-22T20:45:27.171Z,20.62
2023-04-22T20:47:54.181Z,20.58
2023-04-22T20:50:21.166Z,20.55
2023-04-22T20:52:49.062Z,20.52
2023-04-22T20:55:17.016Z,20.47
2023-04-22T20:57:44.888Z,20.45
2023-04-22T21:00:12.330Z,20.42
2023-04-22T21:02:40.109Z,20.40
2023-04-22T21:05:07.814Z,20.37
2023-04-22T21:07:38.972Z,20.30
2023-04-22T21:10:07.386Z,20.33
2023-04-22T21:12:34.616Z,20.31
2023-04-22T21:15:01.919Z,20.28
2023-04-22T21:17:31.802Z,20.23
2023-04-22T21:19:59.215Z,20.21
2023-04-22T21:22:26.320Z,20.16
2023-04-22T21:24:54.091Z,20.18
2023-04-22T21:27:22.509Z,20.17
2023-04-22T21:29:50.190Z,20.12
2023-04-22T21:32:20.048Z,20.10
2023-04-22T21:34:47.023Z,20.12
2023-04-22T21:37:13.919Z,20.10
2023-04-22T21:39:41.218Z,20.08
2023-04-22T21:42:08.798Z,20.06
2023-04-22T21:44:37.112Z,20.06
2023-04-22T21:47:04.728Z,20.06
2023-04-22T21:49:31.752Z,20.02
2023-04-22T21:51:59.023Z,20.05
2023-04-22T21:54:25.937Z,20.03
2023-04-22T21:56:53.077Z,20.03
2023-04-22T21:59:19.995Z,20.02
2023-04-22T22:01:46.938Z,20.00
2023-04-22T22:04:15.921Z,19.98
2023-04-22T22:06:45.245Z,19.98
2023-04-22T22:09:14.250Z,19.97
2023-04-22T22:11:41.129Z,19.96
2023-04-22T22:14:08.043Z,19.91
2023-04-22T22:16:34.989Z,19.93
2023-04-22T22:19:04.472Z,19.90
2023-04-22T22:21:32.748Z,19.88
2023-04-22T22:23:59.766Z,19.84
2023-04-22T22:26:27.819Z,19.82
2023-04-22T22:28:55.061Z,19.78
2023-04-22T22:31:21.969Z,19.75
2023-04-22T22:33:48.982Z,19.65
2023-04-22T22:36:16.224Z,19.67
2023-04-22T22:38:43.210Z,19.69
2023-04-22T22:41:10.138Z,19.68
2023-04-22T22:43:37.064Z,19.65
2023-04-22T22:46:04.072Z,19.63
2023-04-22T22:48:31.146Z,19.61
2023-04-22T22:50:58.051Z,19.59
2023-04-22T22:53:24.949Z,19.58
2023-04-22T22:55:51.831Z,19.55
2023-04-22T22:58:18.720Z,19.55
2023-04-22T23:00:45.691Z,19.54
2023-04-22T23:03:12.897Z,19.53
2023-04-22T23:05:39.917Z,19.52
2023-04-22T23:08:07.122Z,19.51
2023-04-22T23:10:33.993Z,19.50
2023-04-22T23:13:01.122Z,19.49
2023-04-22T23:15:28.007Z,19.47
2023-04-22T23:17:54.949Z,19.47
2023-04-22T23:20:23.737Z,19.44
2023-04-22T23:22:51.352Z,19.45
2023-04-22T23:25:18.469Z,19.41
2023-04-22T23:27:45.622Z,19.41
2023-04-22T23:30:13.080Z,19.41
2023-04-22T23:32:41.060Z,19.40
2023-04-22T23:35:11.521Z,19.39
2023-04-22T23:37:43.782Z,19.36
2023-04-22T23:40:11.778Z,19.36
2023-04-22T23:42:38.674Z,19.35
2023-04-22T23:45:06.149Z,19.33
2023-04-22T23:47:33.204Z,19.32
2023-04-22T23:50:00.232Z,19.32
2023-04-22T23:52:27.143Z,19.32
2023-04-22T23:54:55.092Z,19.30
2023-04-22T23:57:22.232Z,19.24
2023-04-22T23:59:49.398Z,19.26
